sensor_id;sensor_type;location;lat;lon;timestamp;temperature;humidity
67163;DHT22;54092;53.088;8.850;2022-08-03T00:01:16;21.00;99.90
67163;DHT22;54092;53.088;8.850;2022-08-03T00:03:42;21.00;99.90
67163;DHT22;54092;53.088;8.850;2022-08-03T00:06:07;21.00;99.90
67163;DHT22;54092;53.088;8.850;2022-08-03T00:08:33;21.00;99.90
67163;DHT22;54092;53.088;8.850;2022-08-03T00:10:58;21.00;99.90
67163;DHT22;54092;53.088;8.850;2022-08-03T00:13:24;20.90;99.90
67163;DHT22;54092;53.088;8.850;2022-08-03T00:15:50;20.90;99.90
67163;DHT22;54092;53.088;8.850;2022-08-03T00:18:16;20.80;99.90
67163;DHT22;54092;53.088;8.850;2022-08-03T00:20:42;20.80;99.90
67163;DHT22;54092;53.088;8.850;2022-08-03T00:23:07;20.70;99.90
67163;DHT22;54092;53.088;8.850;2022-08-03T00:25:34;20.70;99.90
67163;DHT22;54092;53.088;8.850;2022-08-03T00:28:00;20.70;99.90
67163;DHT22;54092;53.088;8.850;2022-08-03T00:30:26;20.70;99.90
67163;DHT22;54092;53.088;8.850;2022-08-03T00:32:51;20.70;99.90
67163;DHT22;54092;53.088;8.850;2022-08-03T00:35:17;20.60;99.90
67163;DHT22;54092;53.088;8.850;2022-08-03T00:37:42;20.60;99.90
67163;DHT22;54092;53.088;8.850;2022-08-03T00:40:14;20.50;99.90
67163;DHT22;54092;53.088;8.850;2022-08-03T00:42:57;20.50;99.90
67163;DHT22;54092;53.088;8.850;2022-08-03T00:45:28;20.50;99.90
67163;DHT22;54092;53.088;8.850;2022-08-03T00:47:54;20.40;99.90
67163;DHT22;54092;53.088;8.850;2022-08-03T00:50:21;20.40;99.90
67163;DHT22;54092;53.088;8.850;2022-08-03T00:52:48;20.40;99.90
67163;DHT22;54092;53.088;8.850;2022-08-03T00:55:14;20.40;99.90
67163;DHT22;54092;53.088;8.850;2022-08-03T00:57:41;20.30;99.90
67163;DHT22;54092;53.088;8.850;2022-08-03T01:00:08;20.30;99.90
67163;DHT22;54092;53.088;8.850;2022-08-03T01:02:35;20.30;99.90
67163;DHT22;54092;53.088;8.850;2022-08-03T01:05:01;20.30;99.90
67163;DHT22;54092;53.088;8.850;2022-08-03T01:10:40;20.20;99.90
67163;DHT22;54092;53.088;8.850;2022-08-03T01:16:34;20.20;99.90
67163;DHT22;54092;53.088;8.850;2022-08-03T01:24:43;20.10;99.90
67163;DHT22;54092;53.088;8.850;2022-08-03T01:27:16;20.00;99.90
67163;DHT22;54092;53.088;8.850;2022-08-03T01:29:56;20.00;99.90
67163;DHT22;54092;53.088;8.850;2022-08-03T01:32:40;20.00;99.90
67163;DHT22;54092;53.088;8.850;2022-08-03T01:35:10;20.00;99.90
67163;DHT22;54092;53.088;8.850;2022-08-03T01:37:50;19.90;99.90
67163;DHT22;54092;53.088;8.850;2022-08-03T01:40:16;19.90;99.90
67163;DHT22;54092;53.088;8.850;2022-08-03T01:42:44;19.90;99.90
67163;DHT22;54092;53.088;8.850;2022-08-03T01:45:12;19.90;99.90
67163;DHT22;54092;53.088;8.850;2022-08-03T01:47:40;19.90;99.90
67163;DHT22;54092;53.088;8.850;2022-08-03T01:50:07;19.90;99.90
67163;DHT22;54092;53.088;8.850;2022-08-03T01:52:33;19.80;99.90
67163;DHT22;54092;53.088;8.850;2022-08-03T01:55:02;19.70;99.90
67163;DHT22;54092;53.088;8.850;2022-08-03T01:57:28;19.70;99.90
67163;DHT22;54092;53.088;8.850;2022-08-03T01:59:55;19.70;99.90
67163;DHT22;54092;53.088;8.850;2022-08-03T02:02:23;19.70;99.90
67163;DHT22;54092;53.088;8.850;2022-08-03T02:04:49;19.70;99.90
67163;DHT22;54092;53.088;8.850;2022-08-03T02:07:17;19.70;99.90
67163;DHT22;54092;53.088;8.850;2022-08-03T02:09:45;19.70;99.90
67163;DHT22;54092;53.088;8.850;2022-08-03T02:12:15;19.70;99.90
67163;DHT22;54092;53.088;8.850;2022-08-03T02:14:43;19.70;99.90
67163;DHT22;54092;53.088;8.850;2022-08-03T02:17:11;19.60;99.90
67163;DHT22;54092;53.088;8.850;2022-08-03T02:19:37;19.60;99.90
67163;DHT22;54092;53.088;8.850;2022-08-03T02:22:04;19.60;99.90
67163;DHT22;54092;53.088;8.850;2022-08-03T02:24:32;19.60;99.90
67163;DHT22;54092;53.088;8.850;2022-08-03T02:26:58;19.50;99.90
67163;DHT22;54092;53.088;8.850;2022-08-03T02:29:28;19.50;99.90
67163;DHT22;54092;53.088;8.850;2022-08-03T02:31:57;19.50;99.90
67163;DHT22;54092;53.088;8.850;2022-08-03T02:34:26;19.40;99.90
67163;DHT22;54092;53.088;8.850;2022-08-03T02:36:52;19.40;99.90
67163;DHT22;54092;53.088;8.850;2022-08-03T02:39:22;19.40;99.90
67163;DHT22;54092;53.088;8.850;2022-08-03T02:41:51;19.40;99.90
67163;DHT22;54092;53.088;8.850;2022-08-03T02:44:23;19.30;99.90
67163;DHT22;54092;53.088;8.850;2022-08-03T02:46:53;19.40;99.90
67163;DHT22;54092;53.088;8.850;2022-08-03T02:49:19;19.30;99.90
67163;DHT22;54092;53.088;8.850;2022-08-03T02:51:46;19.30;99.90
67163;DHT22;54092;53.088;8.850;2022-08-03T02:54:17;19.30;99.90
67163;DHT22;54092;53.088;8.850;2022-08-03T02:56:44;19.30;99.90
67163;DHT22;54092;53.088;8.850;2022-08-03T02:59:11;19.20;99.90
67163;DHT22;54092;53.088;8.850;2022-08-03T03:01:38;19.20;99.90
67163;DHT22;54092;53.088;8.850;2022-08-03T03:04:04;19.20;99.90
67163;DHT22;54092;53.088;8.850;2022-08-03T03:06:30;19.20;99.90
67163;DHT22;54092;53.088;8.850;2022-08-03T03:08:56;19.20;99.90
67163;DHT22;54092;53.088;8.850;2022-08-03T03:11:22;19.20;99.90
67163;DHT22;54092;53.088;8.850;2022-08-03T03:13:50;19.10;99.90
67163;DHT22;54092;53.088;8.850;2022-08-03T03:16:17;19.10;99.90
67163;DHT22;54092;53.088;8.850;2022-08-03T03:18:44;19.10;99.90
67163;DHT22;54092;53.088;8.850;2022-08-03T03:21:11;19.10;99.90
67163;DHT22;54092;53.088;8.850;2022-08-03T03:23:38;19.00;99.90
67163;DHT22;54092;53.088;8.850;2022-08-03T03:26:05;19.00;99.90
67163;DHT22;54092;53.088;8.850;2022-08-03T03:28:32;19.00;99.90
67163;DHT22;54092;53.088;8.850;2022-08-03T03:30:58;19.00;99.90
67163;DHT22;54092;53.088;8.850;2022-08-03T03:33:25;19.00;99.90
67163;DHT22;54092;53.088;8.850;2022-08-03T03:35:50;19.00;99.90
67163;DHT22;54092;53.088;8.850;2022-08-03T03:38:17;18.90;99.90
67163;DHT22;54092;53.088;8.850;2022-08-03T03:40:43;18.90;99.90
67163;DHT22;54092;53.088;8.850;2022-08-03T03:43:10;18.90;99.90
67163;DHT22;54092;53.088;8.850;2022-08-03T03:45:36;18.90;99.90
67163;DHT22;54092;53.088;8.850;2022-08-03T03:48:06;18.90;99.90
67163;DHT22;54092;53.088;8.850;2022-08-03T03:50:31;18.80;99.90
67163;DHT22;54092;53.088;8.850;2022-08-03T03:52:57;18.90;99.90
67163;DHT22;54092;53.088;8.850;2022-08-03T03:55:23;18.80;99.90
67163;DHT22;54092;53.088;8.850;2022-08-03T03:57:49;18.80;99.90
67163;DHT22;54092;53.088;8.850;2022-08-03T04:00:16;18.90;99.90
67163;DHT22;54092;53.088;8.850;2022-08-03T04:02:42;18.80;99.90
67163;DHT22;54092;53.088;8.850;2022-08-03T04:05:08;18.80;99.90
67163;DHT22;54092;53.088;8.850;2022-08-03T04:08:02;18.90;99.90
67163;DHT22;54092;53.088;8.850;2022-08-03T04:11:15;18.90;99.90
67163;DHT22;54092;53.088;8.850;2022-08-03T04:13:49;18.90;99.90
67163;DHT22;54092;53.088;8.850;2022-08-03T04:16:17;18.90;99.90
67163;DHT22;54092;53.088;8.850;2022-08-03T04:18:48;18.90;99.90
67163;DHT22;54092;53.088;8.850;2022-08-03T04:21:16;19.00;99.90
67163;DHT22;54092;53.088;8.850;2022-08-03T04:23:45;19.00;99.90
67163;DHT22;54092;53.088;8.850;2022-08-03T04:26:15;18.90;99.90
67163;DHT22;54092;53.088;8.850;2022-08-03T04:28:44;19.00;99.90
67163;DHT22;54092;53.088;8.850;2022-08-03T04:31:12;19.00;99.90
67163;DHT22;54092;53.088;8.850;2022-08-03T04:33:40;19.10;99.90
67163;DHT22;54092;53.088;8.850;2022-08-03T04:36:08;19.10;99.90
67163;DHT22;54092;53.088;8.850;2022-08-03T04:38:43;19.10;99.90
67163;DHT22;54092;53.088;8.850;2022-08-03T04:41:14;19.20;99.90
67163;DHT22;54092;53.088;8.850;2022-08-03T04:43:40;19.20;99.90
67163;DHT22;54092;53.088;8.850;2022-08-03T04:46:07;19.20;99.90
67163;DHT22;54092;53.088;8.850;2022-08-03T04:48:33;19.30;99.90
67163;DHT22;54092;53.088;8.850;2022-08-03T04:50:59;19.40;99.90
67163;DHT22;54092;53.088;8.850;2022-08-03T04:53:25;19.40;99.90
67163;DHT22;54092;53.088;8.850;2022-08-03T04:55:50;19.50;99.90
67163;DHT22;54092;53.088;8.850;2022-08-03T04:58:16;19.50;99.90
67163;DHT22;54092;53.088;8.850;2022-08-03T05:00:41;19.60;99.90
67163;DHT22;54092;53.088;8.850;2022-08-03T05:03:07;19.60;99.90
67163;DHT22;54092;53.088;8.850;2022-08-03T05:05:33;19.70;99.90
67163;DHT22;54092;53.088;8.850;2022-08-03T05:07:58;19.70;99.90
67163;DHT22;54092;53.088;8.850;2022-08-03T05:10:24;19.80;99.90
67163;DHT22;54092;53.088;8.850;2022-08-03T05:12:49;19.80;99.90
67163;DHT22;54092;53.088;8.850;2022-08-03T05:15:16;19.90;99.90
67163;DHT22;54092;53.088;8.850;2022-08-03T05:17:42;19.90;99.90
67163;DHT22;54092;53.088;8.850;2022-08-03T05:20:08;20.00;99.90
67163;DHT22;54092;53.088;8.850;2022-08-03T05:22:34;20.10;99.90
67163;DHT22;54092;53.088;8.850;2022-08-03T05:25:00;20.10;99.90
67163;DHT22;54092;53.088;8.850;2022-08-03T05:27:26;20.20;99.90
67163;DHT22;54092;53.088;8.850;2022-08-03T05:29:52;20.30;99.90
67163;DHT22;54092;53.088;8.850;2022-08-03T05:32:17;20.40;99.90
67163;DHT22;54092;53.088;8.850;2022-08-03T05:34:43;20.50;99.90
67163;DHT22;54092;53.088;8.850;2022-08-03T05:37:09;20.60;99.90
67163;DHT22;54092;53.088;8.850;2022-08-03T05:39:35;20.70;99.90
67163;DHT22;54092;53.088;8.850;2022-08-03T05:42:02;20.80;99.90
67163;DHT22;54092;53.088;8.850;2022-08-03T05:44:28;20.90;99.90
67163;DHT22;54092;53.088;8.850;2022-08-03T05:46:53;21.00;99.90
67163;DHT22;54092;53.088;8.850;2022-08-03T05:49:19;21.10;99.90
67163;DHT22;54092;53.088;8.850;2022-08-03T05:51:45;21.10;99.90
67163;DHT22;54092;53.088;8.850;2022-08-03T05:54:10;21.20;99.90
67163;DHT22;54092;53.088;8.850;2022-08-03T05:56:36;21.30;99.90
67163;DHT22;54092;53.088;8.850;2022-08-03T05:59:02;21.40;99.90
67163;DHT22;54092;53.088;8.850;2022-08-03T06:01:28;21.50;99.90
67163;DHT22;54092;53.088;8.850;2022-08-03T06:03:54;21.60;99.90
67163;DHT22;54092;53.088;8.850;2022-08-03T06:06:20;21.70;99.90
67163;DHT22;54092;53.088;8.850;2022-08-03T06:08:45;21.80;99.90
67163;DHT22;54092;53.088;8.850;2022-08-03T06:11:12;21.80;99.90
67163;DHT22;54092;53.088;8.850;2022-08-03T06:13:38;21.90;99.90
67163;DHT22;54092;53.088;8.850;2022-08-03T06:16:04;21.90;99.90
67163;DHT22;54092;53.088;8.850;2022-08-03T06:18:30;21.90;99.90
67163;DHT22;54092;53.088;8.850;2022-08-03T06:20:55;22.10;99.90
67163;DHT22;54092;53.088;8.850;2022-08-03T06:23:21;22.10;99.90
67163;DHT22;54092;53.088;8.850;2022-08-03T06:25:47;22.30;99.90
67163;DHT22;54092;53.088;8.850;2022-08-03T06:28:13;22.30;99.90
67163;DHT22;54092;53.088;8.850;2022-08-03T06:30:39;22.30;99.90
67163;DHT22;54092;53.088;8.850;2022-08-03T06:33:05;22.40;99.90
67163;DHT22;54092;53.088;8.850;2022-08-03T06:35:30;22.50;99.90
67163;DHT22;54092;53.088;8.850;2022-08-03T06:37:56;22.50;99.90
67163;DHT22;54092;53.088;8.850;2022-08-03T06:40:23;22.60;99.90
67163;DHT22;54092;53.088;8.850;2022-08-03T06:43:00;22.70;99.90
67163;DHT22;54092;53.088;8.850;2022-08-03T06:45:27;22.80;99.90
67163;DHT22;54092;53.088;8.850;2022-08-03T06:50:29;22.90;98.90
67163;DHT22;54092;53.088;8.850;2022-08-03T06:52:54;22.90;99.00
67163;DHT22;54092;53.088;8.850;2022-08-03T06:55:20;22.90;99.30
67163;DHT22;54092;53.088;8.850;2022-08-03T06:57:46;23.00;99.10
67163;DHT22;54092;53.088;8.850;2022-08-03T07:00:12;23.20;98.70
67163;DHT22;54092;53.088;8.850;2022-08-03T07:02:39;23.30;97.70
67163;DHT22;54092;53.088;8.850;2022-08-03T07:05:05;23.40;98.60
67163;DHT22;54092;53.088;8.850;2022-08-03T07:07:31;23.60;97.40
67163;DHT22;54092;53.088;8.850;2022-08-03T07:09:56;23.70;97.00
67163;DHT22;54092;53.088;8.850;2022-08-03T07:12:22;23.80;96.00
67163;DHT22;54092;53.088;8.850;2022-08-03T07:14:47;23.80;96.20
67163;DHT22;54092;53.088;8.850;2022-08-03T07:17:12;23.80;95.70
67163;DHT22;54092;53.088;8.850;2022-08-03T07:19:38;23.80;95.40
67163;DHT22;54092;53.088;8.850;2022-08-03T07:22:04;23.80;96.20
67163;DHT22;54092;53.088;8.850;2022-08-03T07:24:29;23.80;95.80
67163;DHT22;54092;53.088;8.850;2022-08-03T07:26:55;24.00;95.80
67163;DHT22;54092;53.088;8.850;2022-08-03T07:29:20;24.20;95.40
67163;DHT22;54092;53.088;8.850;2022-08-03T07:31:46;24.30;94.10
67163;DHT22;54092;53.088;8.850;2022-08-03T07:34:11;24.40;94.00
67163;DHT22;54092;53.088;8.850;2022-08-03T07:36:37;24.40;93.20
67163;DHT22;54092;53.088;8.850;2022-08-03T07:39:03;24.50;93.80
67163;DHT22;54092;53.088;8.850;2022-08-03T07:41:29;24.60;93.50
67163;DHT22;54092;53.088;8.850;2022-08-03T07:43:56;24.70;91.00
67163;DHT22;54092;53.088;8.850;2022-08-03T07:46:21;24.80;92.20
67163;DHT22;54092;53.088;8.850;2022-08-03T07:48:47;24.80;90.90
67163;DHT22;54092;53.088;8.850;2022-08-03T07:51:12;24.80;90.90
67163;DHT22;54092;53.088;8.850;2022-08-03T07:53:38;24.80;90.80
67163;DHT22;54092;53.088;8.850;2022-08-03T07:56:03;24.90;90.50
67163;DHT22;54092;53.088;8.850;2022-08-03T07:58:29;25.00;90.40
67163;DHT22;54092;53.088;8.850;2022-08-03T08:00:55;25.00;90.10
67163;DHT22;54092;53.088;8.850;2022-08-03T08:03:20;25.00;87.80
67163;DHT22;54092;53.088;8.850;2022-08-03T08:05:50;25.00;87.20
67163;DHT22;54092;53.088;8.850;2022-08-03T08:08:16;25.10;86.50
67163;DHT22;54092;53.088;8.850;2022-08-03T08:10:41;25.30;86.10
67163;DHT22;54092;53.088;8.850;2022-08-03T08:13:07;25.30;83.00
67163;DHT22;54092;53.088;8.850;2022-08-03T08:15:32;25.40;82.90
67163;DHT22;54092;53.088;8.850;2022-08-03T08:17:59;25.50;82.40
67163;DHT22;54092;53.088;8.850;2022-08-03T08:20:30;25.50;78.70
67163;DHT22;54092;53.088;8.850;2022-08-03T08:23:01;25.50;78.80
67163;DHT22;54092;53.088;8.850;2022-08-03T08:25:29;25.40;79.40
67163;DHT22;54092;53.088;8.850;2022-08-03T08:27:55;25.40;80.40
67163;DHT22;54092;53.088;8.850;2022-08-03T08:30:21;25.40;82.20
67163;DHT22;54092;53.088;8.850;2022-08-03T08:32:48;25.60;81.00
67163;DHT22;54092;53.088;8.850;2022-08-03T08:35:14;25.60;79.30
67163;DHT22;54092;53.088;8.850;2022-08-03T08:37:40;25.80;79.10
67163;DHT22;54092;53.088;8.850;2022-08-03T08:40:06;26.00;78.10
67163;DHT22;54092;53.088;8.850;2022-08-03T08:42:32;26.10;74.80
67163;DHT22;54092;53.088;8.850;2022-08-03T08:44:59;26.10;74.00
67163;DHT22;54092;53.088;8.850;2022-08-03T08:47:30;26.30;74.00
67163;DHT22;54092;53.088;8.850;2022-08-03T08:49:57;26.40;73.20
67163;DHT22;54092;53.088;8.850;2022-08-03T08:52:25;26.60;71.90
67163;DHT22;54092;53.088;8.850;2022-08-03T08:54:56;26.80;68.60
67163;DHT22;54092;53.088;8.850;2022-08-03T08:57:27;26.90;66.80
67163;DHT22;54092;53.088;8.850;2022-08-03T08:59:55;27.00;66.60
67163;DHT22;54092;53.088;8.850;2022-08-03T09:02:22;27.20;65.50
67163;DHT22;54092;53.088;8.850;2022-08-03T09:04:48;27.40;64.90
67163;DHT22;54092;53.088;8.850;2022-08-03T09:07:13;27.40;63.10
67163;DHT22;54092;53.088;8.850;2022-08-03T09:09:39;27.50;60.00
67163;DHT22;54092;53.088;8.850;2022-08-03T09:12:05;27.50;59.40
67163;DHT22;54092;53.088;8.850;2022-08-03T09:14:30;27.70;58.20
67163;DHT22;54092;53.088;8.850;2022-08-03T09:16:58;27.90;55.90
67163;DHT22;54092;53.088;8.850;2022-08-03T09:19:26;28.30;54.40
67163;DHT22;54092;53.088;8.850;2022-08-03T09:22:09;28.70;51.60
67163;DHT22;54092;53.088;8.850;2022-08-03T09:24:36;29.00;50.20
67163;DHT22;54092;53.088;8.850;2022-08-03T09:27:03;29.10;48.80
67163;DHT22;54092;53.088;8.850;2022-08-03T09:29:32;29.20;48.50
67163;DHT22;54092;53.088;8.850;2022-08-03T09:32:02;29.60;47.40
67163;DHT22;54092;53.088;8.850;2022-08-03T09:34:28;29.50;48.50
67163;DHT22;54092;53.088;8.850;2022-08-03T09:36:54;29.60;48.10
67163;DHT22;54092;53.088;8.850;2022-08-03T09:39:24;29.50;46.70
67163;DHT22;54092;53.088;8.850;2022-08-03T09:42:04;29.70;46.30
67163;DHT22;54092;53.088;8.850;2022-08-03T09:44:44;30.10;45.80
67163;DHT22;54092;53.088;8.850;2022-08-03T09:47:11;30.70;44.00
67163;DHT22;54092;53.088;8.850;2022-08-03T09:49:38;30.60;43.90
67163;DHT22;54092;53.088;8.850;2022-08-03T09:52:17;30.20;44.60
67163;DHT22;54092;53.088;8.850;2022-08-03T09:54:45;30.40;44.40
67163;DHT22;54092;53.088;8.850;2022-08-03T09:57:22;30.60;42.70
67163;DHT22;54092;53.088;8.850;2022-08-03T09:59:48;31.00;41.80
67163;DHT22;54092;53.088;8.850;2022-08-03T10:02:25;30.90;42.00
67163;DHT22;54092;53.088;8.850;2022-08-03T10:04:51;30.70;42.00
67163;DHT22;54092;53.088;8.850;2022-08-03T10:07:19;30.90;42.20
67163;DHT22;54092;53.088;8.850;2022-08-03T10:09:59;31.10;40.80
67163;DHT22;54092;53.088;8.850;2022-08-03T10:12:26;31.30;40.70
67163;DHT22;54092;53.088;8.850;2022-08-03T10:14:52;31.40;39.80
67163;DHT22;54092;53.088;8.850;2022-08-03T10:17:19;31.50;39.10
67163;DHT22;54092;53.088;8.850;2022-08-03T10:19:45;31.20;39.60
67163;DHT22;54092;53.088;8.850;2022-08-03T10:22:22;31.40;39.30
67163;DHT22;54092;53.088;8.850;2022-08-03T10:27:18;32.20;37.60
67163;DHT22;54092;53.088;8.850;2022-08-03T10:29:48;31.90;37.50
67163;DHT22;54092;53.088;8.850;2022-08-03T10:32:27;31.90;37.10
67163;DHT22;54092;53.088;8.850;2022-08-03T10:34:57;32.70;36.40
67163;DHT22;54092;53.088;8.850;2022-08-03T10:37:22;33.60;34.60
67163;DHT22;54092;53.088;8.850;2022-08-03T10:39:52;33.20;34.50
67163;DHT22;54092;53.088;8.850;2022-08-03T10:42:25;33.00;34.10
67163;DHT22;54092;53.088;8.850;2022-08-03T10:45:02;33.10;34.90
67163;DHT22;54092;53.088;8.850;2022-08-03T10:47:29;33.60;34.40
67163;DHT22;54092;53.088;8.850;2022-08-03T10:49:55;33.70;33.50
67163;DHT22;54092;53.088;8.850;2022-08-03T10:52:21;33.40;32.60
67163;DHT22;54092;53.088;8.850;2022-08-03T10:54:46;33.10;33.90
67163;DHT22;54092;53.088;8.850;2022-08-03T10:57:51;33.20;34.40
67163;DHT22;54092;53.088;8.850;2022-08-03T11:00:22;33.00;33.80
67163;DHT22;54092;53.088;8.850;2022-08-03T11:03:02;33.80;32.90
67163;DHT22;54092;53.088;8.850;2022-08-03T11:05:29;33.90;32.60
67163;DHT22;54092;53.088;8.850;2022-08-03T11:08:27;33.90;32.50
67163;DHT22;54092;53.088;8.850;2022-08-03T11:10:59;33.60;31.90
67163;DHT22;54092;53.088;8.850;2022-08-03T11:13:26;34.10;31.70
67163;DHT22;54092;53.088;8.850;2022-08-03T11:15:57;34.10;31.60
67163;DHT22;54092;53.088;8.850;2022-08-03T11:18:23;34.50;30.70
67163;DHT22;54092;53.088;8.850;2022-08-03T11:20:51;34.70;30.60
67163;DHT22;54092;53.088;8.850;2022-08-03T11:23:18;34.80;30.60
67163;DHT22;54092;53.088;8.850;2022-08-03T11:28:43;34.90;29.50
67163;DHT22;54092;53.088;8.850;2022-08-03T11:34:05;35.00;29.70
67163;DHT22;54092;53.088;8.850;2022-08-03T11:39:42;34.90;30.00
67163;DHT22;54092;53.088;8.850;2022-08-03T11:44:49;35.60;28.80
67163;DHT22;54092;53.088;8.850;2022-08-03T11:47:15;36.10;28.70
67163;DHT22;54092;53.088;8.850;2022-08-03T11:49:45;36.60;27.70
67163;DHT22;54092;53.088;8.850;2022-08-03T11:52:11;36.10;28.60
67163;DHT22;54092;53.088;8.850;2022-08-03T11:54:38;35.60;28.70
67163;DHT22;54092;53.088;8.850;2022-08-03T11:57:04;35.10;29.40
67163;DHT22;54092;53.088;8.850;2022-08-03T11:59:36;34.50;29.30
67163;DHT22;54092;53.088;8.850;2022-08-03T12:02:06;35.00;29.10
67163;DHT22;54092;53.088;8.850;2022-08-03T12:04:49;35.10;28.50
67163;DHT22;54092;53.088;8.850;2022-08-03T12:07:14;36.20;27.60
67163;DHT22;54092;53.088;8.850;2022-08-03T12:09:40;36.50;27.10
67163;DHT22;54092;53.088;8.850;2022-08-03T12:12:06;36.70;26.90
67163;DHT22;54092;53.088;8.850;2022-08-03T12:14:32;36.70;26.90
67163;DHT22;54092;53.088;8.850;2022-08-03T12:16:57;36.50;27.40
67163;DHT22;54092;53.088;8.850;2022-08-03T12:19:22;36.20;27.60
67163;DHT22;54092;53.088;8.850;2022-08-03T12:21:49;35.80;27.80
67163;DHT22;54092;53.088;8.850;2022-08-03T12:24:15;35.50;27.80
67163;DHT22;54092;53.088;8.850;2022-08-03T12:26:49;35.00;28.80
67163;DHT22;54092;53.088;8.850;2022-08-03T12:29:21;34.30;29.30
67163;DHT22;54092;53.088;8.850;2022-08-03T12:31:47;33.60;31.00
67163;DHT22;54092;53.088;8.850;2022-08-03T12:34:13;33.20;31.30
67163;DHT22;54092;53.088;8.850;2022-08-03T12:36:49;33.10;31.20
67163;DHT22;54092;53.088;8.850;2022-08-03T12:39:15;32.90;32.20
67163;DHT22;54092;53.088;8.850;2022-08-03T12:41:41;32.60;32.80
67163;DHT22;54092;53.088;8.850;2022-08-03T12:44:07;33.00;32.50
67163;DHT22;54092;53.088;8.850;2022-08-03T12:46:39;33.70;31.40
67163;DHT22;54092;53.088;8.850;2022-08-03T12:54:06;32.50;32.30
67163;DHT22;54092;53.088;8.850;2022-08-03T12:56:33;32.40;33.40
67163;DHT22;54092;53.088;8.850;2022-08-03T12:58:58;32.10;33.10
67163;DHT22;54092;53.088;8.850;2022-08-03T13:01:24;31.90;33.40
67163;DHT22;54092;53.088;8.850;2022-08-03T13:03:52;31.90;33.70
67163;DHT22;54092;53.088;8.850;2022-08-03T13:06:21;31.90;33.70
67163;DHT22;54092;53.088;8.850;2022-08-03T13:08:47;31.60;34.60
67163;DHT22;54092;53.088;8.850;2022-08-03T13:11:19;31.50;34.60
67163;DHT22;54092;53.088;8.850;2022-08-03T13:13:45;31.40;34.80
67163;DHT22;54092;53.088;8.850;2022-08-03T13:16:10;31.40;34.40
67163;DHT22;54092;53.088;8.850;2022-08-03T13:18:36;31.70;34.50
67163;DHT22;54092;53.088;8.850;2022-08-03T13:21:01;31.90;35.60
67163;DHT22;54092;53.088;8.850;2022-08-03T13:23:27;31.80;34.00
67163;DHT22;54092;53.088;8.850;2022-08-03T13:25:52;31.90;34.70
67163;DHT22;54092;53.088;8.850;2022-08-03T13:28:18;32.00;34.30
67163;DHT22;54092;53.088;8.850;2022-08-03T13:30:43;31.90;34.00
67163;DHT22;54092;53.088;8.850;2022-08-03T13:33:09;31.90;33.80
67163;DHT22;54092;53.088;8.850;2022-08-03T13:35:34;31.70;33.30
67163;DHT22;54092;53.088;8.850;2022-08-03T13:38:00;31.60;33.70
67163;DHT22;54092;53.088;8.850;2022-08-03T13:40:25;31.80;33.70
67163;DHT22;54092;53.088;8.850;2022-08-03T13:42:51;31.70;33.80
67163;DHT22;54092;53.088;8.850;2022-08-03T13:45:16;31.60;33.90
67163;DHT22;54092;53.088;8.850;2022-08-03T13:47:42;31.60;34.70
67163;DHT22;54092;53.088;8.850;2022-08-03T13:50:08;31.60;34.80
67163;DHT22;54092;53.088;8.850;2022-08-03T13:52:34;31.50;34.60
67163;DHT22;54092;53.088;8.850;2022-08-03T13:55:04;31.50;35.30
67163;DHT22;54092;53.088;8.850;2022-08-03T13:57:29;31.60;34.80
67163;DHT22;54092;53.088;8.850;2022-08-03T13:59:55;31.70;33.90
67163;DHT22;54092;53.088;8.850;2022-08-03T14:02:20;31.70;35.60
67163;DHT22;54092;53.088;8.850;2022-08-03T14:04:46;31.70;34.00
67163;DHT22;54092;53.088;8.850;2022-08-03T14:07:11;31.60;33.30
67163;DHT22;54092;53.088;8.850;2022-08-03T14:09:39;31.50;34.00
67163;DHT22;54092;53.088;8.850;2022-08-03T14:12:05;31.50;33.70
67163;DHT22;54092;53.088;8.850;2022-08-03T14:14:31;31.60;33.40
67163;DHT22;54092;53.088;8.850;2022-08-03T14:16:56;31.60;33.10
67163;DHT22;54092;53.088;8.850;2022-08-03T14:19:22;31.70;32.70
67163;DHT22;54092;53.088;8.850;2022-08-03T14:21:47;31.60;32.20
67163;DHT22;54092;53.088;8.850;2022-08-03T14:24:13;31.50;32.70
67163;DHT22;54092;53.088;8.850;2022-08-03T14:26:38;31.40;33.00
67163;DHT22;54092;53.088;8.850;2022-08-03T14:29:04;31.50;32.90
67163;DHT22;54092;53.088;8.850;2022-08-03T14:31:30;31.40;32.90
67163;DHT22;54092;53.088;8.850;2022-08-03T14:33:55;31.50;32.50
67163;DHT22;54092;53.088;8.850;2022-08-03T14:36:21;31.40;32.50
67163;DHT22;54092;53.088;8.850;2022-08-03T14:38:46;31.50;33.10
67163;DHT22;54092;53.088;8.850;2022-08-03T14:41:12;31.50;32.90
67163;DHT22;54092;53.088;8.850;2022-08-03T14:43:37;31.50;32.70
67163;DHT22;54092;53.088;8.850;2022-08-03T14:46:03;31.50;32.30
67163;DHT22;54092;53.088;8.850;2022-08-03T14:48:28;31.50;32.50
67163;DHT22;54092;53.088;8.850;2022-08-03T14:50:54;31.20;33.20
67163;DHT22;54092;53.088;8.850;2022-08-03T14:53:21;31.10;34.00
67163;DHT22;54092;53.088;8.850;2022-08-03T14:55:47;31.00;33.50
67163;DHT22;54092;53.088;8.850;2022-08-03T14:58:16;31.00;33.70
67163;DHT22;54092;53.088;8.850;2022-08-03T15:00:42;31.00;34.60
67163;DHT22;54092;53.088;8.850;2022-08-03T15:03:07;31.00;34.80
67163;DHT22;54092;53.088;8.850;2022-08-03T15:05:33;31.10;34.60
67163;DHT22;54092;53.088;8.850;2022-08-03T15:07:58;31.20;35.10
67163;DHT22;54092;53.088;8.850;2022-08-03T15:10:24;31.30;34.90
67163;DHT22;54092;53.088;8.850;2022-08-03T15:12:49;31.30;34.60
67163;DHT22;54092;53.088;8.850;2022-08-03T15:15:15;31.20;35.20
67163;DHT22;54092;53.088;8.850;2022-08-03T15:17:40;31.20;34.80
67163;DHT22;54092;53.088;8.850;2022-08-03T15:20:06;31.30;34.60
67163;DHT22;54092;53.088;8.850;2022-08-03T15:22:33;31.20;34.30
67163;DHT22;54092;53.088;8.850;2022-08-03T15:25:00;31.20;34.30
67163;DHT22;54092;53.088;8.850;2022-08-03T15:27:25;31.30;34.40
67163;DHT22;54092;53.088;8.850;2022-08-03T15:29:51;31.10;33.90
67163;DHT22;54092;53.088;8.850;2022-08-03T15:32:16;31.10;33.50
67163;DHT22;54092;53.088;8.850;2022-08-03T15:34:42;31.30;34.20
67163;DHT22;54092;53.088;8.850;2022-08-03T15:37:07;31.40;34.30
67163;DHT22;54092;53.088;8.850;2022-08-03T15:39:33;31.40;33.30
67163;DHT22;54092;53.088;8.850;2022-08-03T15:41:59;31.30;33.90
67163;DHT22;54092;53.088;8.850;2022-08-03T15:44:24;31.30;34.50
67163;DHT22;54092;53.088;8.850;2022-08-03T15:46:51;31.30;34.50
67163;DHT22;54092;53.088;8.850;2022-08-03T15:49:17;31.20;34.50
67163;DHT22;54092;53.088;8.850;2022-08-03T15:51:45;31.20;34.70
67163;DHT22;54092;53.088;8.850;2022-08-03T15:54:10;31.20;35.00
67163;DHT22;54092;53.088;8.850;2022-08-03T15:56:36;31.20;35.10
67163;DHT22;54092;53.088;8.850;2022-08-03T15:59:01;31.20;35.20
67163;DHT22;54092;53.088;8.850;2022-08-03T16:01:27;31.10;34.60
67163;DHT22;54092;53.088;8.850;2022-08-03T16:03:53;31.20;34.50
67163;DHT22;54092;53.088;8.850;2022-08-03T16:06:18;31.20;35.10